»·PEaware :: N735U krhv-kmry

N735U :: krhv-kmry

FLIGHT INFORMATION

Flight Status: Arrived
Operator: Privately registered:
United States
More flights under this callsign
Pilot: Jeffrey C. (84)
Aircraft: CESSNA 182 SKYLANE
(C182)
More flights by this aircraft type
Origin: krhv Reid-Hillview
United States
Destination: kmry Monterey Peninsula
United States
More flights between these airports :: More routes between these airports
Route: +HDG290 RV SJC HENCE SNS
File this flight plan on PilotEdge
Remarks:
Altitude:
(Current/Filed)
6,000ft
Speed:
(Current/Filed)
140kts
Departed: 22-May-11 07:06 PM
Arrived: 22-May-11 08:02 PM
Distance/Time
Traveled:
45nm/0:56
Distance/Time
To Go:
Arrived

Flight Plot

Page will automatically refresh every two minutes.

Flight plan parsing failed; only flown route is shown


Map Options




Map Legend


Flown Route
Filed Route
Departure Airport
Arrival Airport
Navaid (VOR, NDB)
Fix

Horizontal Profiles

Position Reports

Time Latitude Longitude Heading Altitude Ground
Speed
22-May-11 18:55 37.333767 -121.815728 135 137ft 0kts
22-May-11 18:56 37.333767 -121.815728 135 137ft 0kts
22-May-11 18:57 37.333767 -121.815728 135 137ft 0kts
22-May-11 18:58 37.333767 -121.815644 56 137ft 0kts
22-May-11 18:59 37.333668 -121.815640 244 137ft 4kts
22-May-11 19:01 37.330781 -121.814212 170 137ft 8kts
22-May-11 19:02 37.329939 -121.815435 231 137ft 0kts
22-May-11 19:03 37.329938 -121.815435 231 137ft 0kts
22-May-11 19:04 37.331761 -121.818081 322 137ft 40kts
22-May-11 19:05 37.342545 -121.828925 309 472ft 58kts
22-May-11 19:06 37.353266 -121.844096 308 1262ft 58kts
22-May-11 19:07 37.363942 -121.859747 313 1998ft 60kts
22-May-11 19:08 37.374637 -121.875785 310 2731ft 59kts
22-May-11 19:09 37.377406 -121.893313 207 3449ft 68kts
22-May-11 19:10 37.355801 -121.887126 169 3976ft 91kts
22-May-11 19:11 37.334333 -121.876210 151 4680ft 81kts
22-May-11 19:12 37.312719 -121.865403 170 5261ft 84kts
22-May-11 19:14 37.267433 -121.846542 165 6377ft 90kts
22-May-11 19:15 37.243458 -121.836058 166 6873ft 96kts
22-May-11 19:16 37.214977 -121.823750 166 7086ft 125kts
22-May-11 19:17 37.185918 -121.812769 168 7002ft 140kts
22-May-11 19:18 37.147913 -121.799777 168 6921ft 141kts
22-May-11 19:19 37.111579 -121.782024 160 6885ft 140kts
22-May-11 19:20 37.071816 -121.761127 160 7039ft 131kts
22-May-11 19:21 37.043332 -121.750130 172 7022ft 126kts
22-May-11 19:22 37.009362 -121.738820 171 6976ft 127kts
22-May-11 19:23 36.976593 -121.728970 169 6912ft 126kts
22-May-11 19:24 36.943942 -121.715212 166 6910ft 123kts
22-May-11 19:25 36.911790 -121.701877 166 6385ft 123kts
22-May-11 19:26 36.878985 -121.688098 163 5952ft 126kts
22-May-11 19:27 36.846306 -121.674779 172 5985ft 122kts
22-May-11 19:28 36.813504 -121.663599 167 5981ft 123kts
22-May-11 19:29 36.781582 -121.649291 166 6033ft 121kts
22-May-11 19:30 36.749955 -121.635480 169 6056ft 119kts
22-May-11 19:31 36.718667 -121.624610 166 6027ft 122kts
22-May-11 19:32 36.688582 -121.608891 170 5981ft 121kts
22-May-11 19:33 36.656523 -121.595018 174 5921ft 118kts
22-May-11 19:34 36.627369 -121.584231 171 6031ft 100kts
22-May-11 19:35 36.600799 -121.574199 168 5956ft 100kts
22-May-11 19:36 36.576269 -121.561123 177 5933ft 95kts
22-May-11 19:37 36.552805 -121.551338 173 5953ft 91kts
22-May-11 19:38 36.530115 -121.541179 173 5928ft 90kts
22-May-11 19:39 36.510941 -121.530509 168 5958ft 76kts
22-May-11 19:40 36.495383 -121.522535 184 5936ft 69kts
22-May-11 19:41 36.479970 -121.516504 170 5964ft 77kts
22-May-11 19:42 36.472488 -121.487868 117 6071ft 93kts
22-May-11 19:43 36.471545 -121.459018 18 6288ft 105kts
22-May-11 19:44 36.478816 -121.470200 206 6331ft 72kts
22-May-11 19:45 36.473181 -121.489821 271 6090ft 72kts
22-May-11 19:46 36.477120 -121.512319 274 5865ft 64kts
22-May-11 19:47 36.484418 -121.531803 286 5844ft 70kts
22-May-11 19:48 36.491750 -121.555292 289 5364ft 77kts
22-May-11 19:49 36.497319 -121.578436 284 5183ft 69kts
22-May-11 19:50 36.505073 -121.601691 277 5044ft 68kts
22-May-11 19:51 36.513129 -121.624894 285 4626ft 74kts
22-May-11 19:52 36.519675 -121.648653 283 4490ft 69kts
22-May-11 19:53 36.529291 -121.669891 285 4242ft 77kts
22-May-11 19:54 36.536599 -121.693694 284 3785ft 76kts
22-May-11 19:57 36.560264 -121.763223 284 1476ft 75kts
22-May-11 19:58 36.566528 -121.782870 282 1380ft 76kts
22-May-11 19:59 36.575620 -121.810470 280 991ft 71kts
22-May-11 20:01 36.586017 -121.841542 296 261ft 13kts
22-May-11 20:02 36.586950 -121.844069 288 261ft 6kts

Navigation Log

Ident Type
Flight plan parsing failed, navigation log unavailable